createdAt,value
2018-09-24T00:01:34.840Z,99.90
2018-09-24T00:04:03.307Z,99.90
2018-09-24T00:06:31.758Z,99.90
2018-09-24T00:09:00.207Z,99.90
2018-09-24T00:11:28.620Z,99.90
2018-09-24T00:13:57.044Z,99.90
2018-09-24T00:16:25.502Z,99.90
2018-09-24T00:18:54.459Z,99.90
2018-09-24T00:21:23.057Z,99.90
2018-09-24T00:23:52.244Z,99.90
2018-09-24T00:26:20.714Z,99.90
2018-09-24T00:28:49.110Z,99.90
2018-09-24T00:31:17.535Z,99.90
2018-09-24T00:33:45.985Z,99.90
2018-09-24T00:36:15.102Z,99.90
2018-09-24T00:38:43.517Z,99.90
2018-09-24T00:41:12.142Z,99.90
2018-09-24T00:43:40.586Z,99.90
2018-09-24T00:46:09.117Z,99.90
2018-09-24T00:48:38.300Z,99.90
2018-09-24T00:51:06.960Z,99.90
2018-09-24T00:53:35.401Z,99.90
2018-09-24T00:56:04.593Z,99.90
2018-09-24T00:58:33.043Z,99.90
2018-09-24T01:01:01.572Z,99.90
2018-09-24T01:03:30.029Z,99.90
2018-09-24T01:05:58.523Z,99.90
2018-09-24T01:08:26.962Z,99.90
2018-09-24T01:10:55.389Z,99.90
2018-09-24T01:13:23.825Z,99.90
2018-09-24T01:15:52.257Z,99.90
2018-09-24T01:18:21.208Z,99.90
2018-09-24T01:20:49.646Z,99.90
2018-09-24T01:23:18.297Z,99.90
2018-09-24T01:25:46.765Z,99.90
2018-09-24T01:28:15.210Z,99.90
2018-09-24T01:30:43.679Z,99.90
2018-09-24T01:33:12.181Z,99.90
2018-09-24T01:35:40.653Z,99.90
2018-09-24T01:38:09.155Z,99.90
2018-09-24T01:40:37.709Z,99.90
2018-09-24T01:43:06.471Z,99.90
2018-09-24T01:45:34.911Z,99.90
2018-09-24T01:48:03.366Z,99.90
2018-09-24T01:50:31.867Z,99.90
2018-09-24T01:53:03.515Z,99.90
2018-09-24T01:55:32.004Z,99.90
2018-09-24T01:58:00.480Z,99.90
2018-09-24T02:00:28.917Z,99.90
2018-09-24T02:02:58.373Z,99.90
2018-09-24T02:05:26.816Z,99.90
2018-09-24T02:07:56.721Z,99.90
2018-09-24T02:10:26.346Z,99.90
2018-09-24T02:12:56.978Z,99.90
2018-09-24T02:15:33.226Z,99.90
2018-09-24T02:18:01.723Z,99.90
2018-09-24T02:20:30.449Z,99.90
2018-09-24T02:22:58.893Z,99.90
2018-09-24T02:25:27.307Z,99.90
2018-09-24T02:27:55.763Z,99.90
2018-09-24T02:30:24.296Z,99.90
2018-09-24T02:32:52.709Z,99.90
2018-09-24T02:35:21.189Z,99.90
2018-09-24T02:37:49.620Z,99.90
2018-09-24T02:40:22.150Z,99.90
2018-09-24T02:42:50.783Z,99.90
2018-09-24T02:45:19.335Z,99.90
2018-09-24T02:47:47.754Z,99.90
2018-09-24T02:50:16.228Z,99.90
2018-09-24T02:52:44.718Z,99.90
2018-09-24T02:55:15.841Z,99.90
2018-09-24T02:57:44.492Z,99.90
2018-09-24T03:00:16.510Z,99.90
2018-09-24T03:02:45.275Z,99.90
2018-09-24T03:05:13.712Z,99.90
2018-09-24T03:07:42.997Z,99.90
2018-09-24T03:10:11.468Z,99.90
2018-09-24T03:12:46.935Z,99.90
2018-09-24T03:15:15.835Z,99.90
2018-09-24T03:17:44.328Z,99.90
2018-09-24T03:20:13.018Z,99.90
2018-09-24T03:22:41.483Z,99.90
2018-09-24T03:25:14.767Z,99.90
2018-09-24T03:27:43.221Z,99.90
2018-09-24T03:30:11.722Z,99.90
2018-09-24T03:32:40.269Z,99.90
2018-09-24T03:35:08.849Z,99.90
2018-09-24T03:37:37.312Z,99.90
2018-09-24T03:40:05.737Z,99.90
2018-09-24T03:42:34.213Z,99.90
2018-09-24T03:45:02.752Z,99.90
2018-09-24T03:47:31.270Z,99.90
2018-09-24T03:49:59.695Z,99.90
2018-09-24T03:52:28.268Z,99.90
2018-09-24T03:54:56.679Z,99.90
2018-09-24T03:57:25.186Z,99.90
2018-09-24T03:59:53.971Z,99.90
2018-09-24T04:02:44.197Z,99.90
2018-09-24T04:05:18.044Z,99.90
2018-09-24T04:07:51.854Z,99.90
2018-09-24T04:10:25.456Z,99.90
2018-09-24T04:12:59.278Z,99.90
2018-09-24T04:15:33.010Z,99.90
2018-09-24T04:18:06.810Z,99.90
2018-09-24T04:20:40.526Z,99.90
2018-09-24T04:23:14.308Z,99.90
2018-09-24T04:25:48.260Z,99.90
2018-09-24T04:28:22.114Z,99.90
2018-09-24T04:30:56.496Z,99.90
2018-09-24T04:33:30.245Z,99.90
2018-09-24T04:36:03.997Z,99.90
2018-09-24T04:38:37.736Z,99.90
2018-09-24T04:41:11.491Z,99.90
2018-09-24T04:43:45.155Z,99.90
2018-09-24T04:46:18.904Z,99.90
2018-09-24T04:48:52.577Z,99.90
2018-09-24T04:51:26.466Z,99.90
2018-09-24T04:54:00.396Z,99.90
2018-09-24T04:56:34.808Z,99.90
2018-09-24T04:59:08.555Z,99.90
2018-09-24T05:01:42.316Z,99.90
2018-09-24T05:04:16.237Z,99.90
2018-09-24T05:06:50.044Z,99.90
2018-09-24T05:09:23.751Z,99.90
2018-09-24T05:11:57.450Z,99.90
2018-09-24T05:14:31.273Z,99.90
2018-09-24T05:17:04.993Z,99.90
2018-09-24T05:19:38.875Z,99.90
2018-09-24T05:22:12.759Z,99.90
2018-09-24T05:24:46.494Z,99.90
2018-09-24T05:27:20.375Z,99.90
2018-09-24T05:29:54.319Z,99.90
2018-09-24T05:32:28.105Z,99.90
2018-09-24T05:35:01.810Z,99.90
2018-09-24T05:37:35.537Z,99.90
2018-09-24T05:40:09.407Z,99.90
2018-09-24T05:42:43.344Z,99.90
2018-09-24T05:45:17.360Z,99.90
2018-09-24T05:47:51.310Z,99.90
2018-09-24T05:50:25.108Z,99.90
2018-09-24T05:52:58.922Z,99.90
2018-09-24T05:55:32.619Z,99.90
2018-09-24T05:58:06.464Z,99.90
2018-09-24T06:00:40.902Z,99.90
2018-09-24T06:03:14.697Z,99.90
2018-09-24T06:05:48.464Z,99.90
2018-09-24T06:08:22.212Z,99.90
2018-09-24T06:11:02.717Z,99.90
2018-09-24T06:13:36.462Z,99.90
2018-09-24T06:16:10.866Z,99.90
2018-09-24T06:18:44.573Z,99.90
2018-09-24T06:21:18.414Z,99.90
2018-09-24T06:23:52.770Z,99.90
2018-09-24T06:26:26.708Z,99.90
2018-09-24T06:29:00.323Z,99.90
2018-09-24T06:31:34.262Z,99.90
2018-09-24T06:34:10.928Z,99.90
2018-09-24T06:36:45.677Z,99.90
2018-09-24T06:39:20.028Z,99.90
2018-09-24T06:41:53.845Z,99.90
2018-09-24T06:44:27.586Z,99.90
2018-09-24T06:47:01.356Z,99.90
2018-09-24T06:49:38.457Z,99.90
2018-09-24T06:52:12.164Z,99.90
2018-09-24T06:54:45.965Z,99.90
2018-09-24T06:57:20.419Z,99.90
2018-09-24T06:59:57.692Z,99.90
2018-09-24T07:02:31.553Z,99.90
2018-09-24T07:05:05.713Z,99.90
2018-09-24T07:07:39.970Z,99.90
2018-09-24T07:10:14.427Z,99.90
2018-09-24T07:12:48.226Z,99.90
2018-09-24T07:15:22.100Z,99.90
2018-09-24T07:17:55.912Z,99.90
2018-09-24T07:20:29.498Z,99.90
2018-09-24T07:23:03.324Z,99.90
2018-09-24T07:25:37.042Z,99.90
2018-09-24T07:28:10.762Z,99.90
2018-09-24T07:30:44.515Z,99.90
2018-09-24T07:33:18.490Z,99.90
2018-09-24T07:35:53.559Z,99.90
2018-09-24T07:38:27.277Z,99.90
2018-09-24T07:41:01.047Z,99.90
2018-09-24T07:43:34.946Z,99.90
2018-09-24T07:46:12.964Z,99.90
2018-09-24T07:48:46.909Z,99.90
2018-09-24T07:51:20.883Z,99.90
2018-09-24T07:53:55.079Z,99.90
2018-09-24T07:56:28.852Z,99.90
2018-09-24T07:59:02.621Z,99.90
2018-09-24T08:01:36.272Z,99.90
2018-09-24T08:04:10.255Z,99.90
2018-09-24T08:06:44.212Z,99.90
2018-09-24T08:09:17.957Z,99.90
2018-09-24T08:11:51.715Z,99.90
2018-09-24T08:14:25.671Z,99.90
2018-09-24T08:16:59.818Z,99.90
2018-09-24T08:19:33.645Z,99.90
2018-09-24T08:22:07.394Z,99.90
2018-09-24T08:24:41.362Z,99.90
2018-09-24T08:27:15.231Z,99.90
2018-09-24T08:29:52.075Z,99.90
2018-09-24T08:32:26.319Z,99.90
2018-09-24T08:35:00.979Z,99.90
2018-09-24T08:37:35.386Z,99.90
2018-09-24T08:40:09.623Z,99.90
2018-09-24T08:42:43.444Z,99.90
2018-09-24T08:45:17.966Z,99.90
2018-09-24T08:47:51.915Z,99.90
2018-09-24T08:50:25.958Z,99.90
2018-09-24T08:53:00.036Z,99.90
2018-09-24T08:55:33.745Z,99.90
2018-09-24T08:58:07.647Z,99.90
2018-09-24T09:00:41.603Z,99.90
2018-09-24T09:03:15.756Z,99.90
2018-09-24T09:05:49.404Z,99.90
2018-09-24T09:08:24.030Z,99.90
2018-09-24T09:10:57.932Z,99.90
2018-09-24T09:13:31.677Z,99.90
2018-09-24T09:16:06.831Z,99.90
2018-09-24T09:18:41.381Z,99.90
2018-09-24T09:21:15.346Z,99.90
2018-09-24T09:23:49.152Z,99.90
2018-09-24T09:26:23.714Z,99.90
2018-09-24T09:28:57.530Z,99.90
2018-09-24T09:31:31.275Z,99.90
2018-09-24T09:34:04.897Z,99.90
2018-09-24T09:36:38.725Z,99.90
2018-09-24T09:39:14.297Z,99.90
2018-09-24T09:41:48.415Z,99.90
2018-09-24T09:44:22.237Z,99.90
2018-09-24T09:46:56.927Z,99.90
2018-09-24T09:49:30.619Z,99.90
2018-09-24T09:52:04.469Z,99.90
2018-09-24T09:54:38.318Z,99.90
2018-09-24T09:57:12.164Z,99.90
2018-09-24T09:59:45.900Z,99.90
2018-09-24T10:02:19.660Z,99.90
2018-09-24T10:04:54.284Z,99.90
2018-09-24T10:07:27.980Z,99.90
2018-09-24T10:10:01.936Z,99.90
2018-09-24T10:12:35.746Z,99.90
2018-09-24T10:15:09.639Z,99.90
2018-09-24T10:17:44.340Z,99.90
2018-09-24T10:20:18.313Z,99.90
2018-09-24T10:22:52.227Z,99.90
2018-09-24T10:25:26.074Z,99.90
2018-09-24T10:28:01.023Z,99.90
2018-09-24T10:30:34.617Z,99.90
2018-09-24T10:33:08.669Z,99.90
2018-09-24T10:35:42.493Z,99.90
2018-09-24T10:38:16.347Z,99.90
2018-09-24T10:40:50.098Z,99.90
2018-09-24T10:43:23.960Z,99.90
2018-09-24T10:45:57.663Z,99.90
2018-09-24T10:48:31.357Z,99.90
2018-09-24T10:51:05.069Z,99.90
2018-09-24T10:53:39.572Z,99.90
2018-09-24T10:56:13.451Z,99.90
2018-09-24T10:58:49.335Z,99.90
2018-09-24T11:01:23.126Z,99.90
2018-09-24T11:03:57.156Z,99.90
2018-09-24T11:06:30.796Z,99.90
2018-09-24T11:09:04.486Z,99.90
2018-09-24T11:11:38.518Z,99.90
2018-09-24T11:14:12.660Z,99.90
2018-09-24T11:16:47.535Z,99.90
2018-09-24T11:19:21.644Z,99.90
2018-09-24T11:21:57.811Z,99.90
2018-09-24T11:24:31.874Z,99.90
2018-09-24T11:27:06.202Z,99.90
2018-09-24T11:29:40.614Z,99.90
2018-09-24T11:32:15.893Z,99.90
2018-09-24T11:34:50.601Z,99.90
2018-09-24T11:37:24.429Z,99.90
2018-09-24T11:39:58.233Z,99.90
2018-09-24T11:42:33.005Z,99.90
2018-09-24T11:45:07.536Z,99.90
2018-09-24T11:47:41.445Z,99.90
2018-09-24T11:50:15.292Z,99.90
2018-09-24T11:52:49.197Z,99.90
2018-09-24T11:55:23.058Z,99.90
2018-09-24T11:57:57.229Z,99.90
2018-09-24T12:00:36.110Z,99.90
2018-09-24T12:03:10.908Z,99.90
2018-09-24T12:05:44.745Z,99.90
2018-09-24T12:08:18.584Z,99.90
2018-09-24T12:10:52.414Z,99.90
2018-09-24T12:13:26.285Z,99.90
2018-09-24T12:16:00.098Z,99.90
2018-09-24T12:18:33.916Z,99.90
2018-09-24T12:21:07.979Z,99.90
2018-09-24T12:23:41.748Z,99.90
2018-09-24T12:26:17.028Z,99.90
2018-09-24T12:28:51.607Z,99.90
2018-09-24T12:31:26.088Z,99.90
2018-09-24T12:33:59.948Z,99.90
2018-09-24T12:36:34.577Z,99.90
2018-09-24T12:39:08.976Z,99.90
2018-09-24T12:41:43.662Z,99.90
2018-09-24T12:44:19.768Z,99.90
2018-09-24T12:46:53.640Z,99.90
2018-09-24T12:49:27.233Z,99.90
2018-09-24T12:52:00.942Z,99.90
2018-09-24T12:54:34.937Z,99.90
2018-09-24T12:57:09.040Z,99.90
2018-09-24T12:59:42.942Z,99.90
2018-09-24T13:02:16.770Z,99.90
2018-09-24T13:04:50.653Z,99.90
2018-09-24T13:07:24.786Z,99.90
2018-09-24T13:09:59.562Z,99.90
2018-09-24T13:12:36.194Z,99.90
2018-09-24T13:15:10.099Z,99.90
2018-09-24T13:17:45.075Z,99.90
2018-09-24T13:20:19.522Z,99.90
2018-09-24T13:22:53.454Z,99.90
2018-09-24T13:25:27.173Z,99.90
2018-09-24T13:28:01.591Z,99.90
2018-09-24T13:30:35.400Z,99.90
2018-09-24T13:33:09.233Z,99.90
2018-09-24T13:35:44.030Z,99.90
2018-09-24T13:38:19.316Z,99.90
2018-09-24T13:40:53.548Z,99.90
2018-09-24T13:43:28.668Z,99.90
2018-09-24T13:46:04.529Z,99.90
2018-09-24T13:48:38.283Z,99.90
2018-09-24T13:51:13.134Z,99.90
2018-09-24T13:53:46.867Z,99.90
2018-09-24T13:56:22.629Z,99.90
2018-09-24T13:58:56.591Z,99.90
2018-09-24T14:01:30.532Z,99.90
2018-09-24T14:04:04.453Z,99.90
2018-09-24T14:06:38.189Z,99.90
2018-09-24T14:09:13.096Z,99.90
2018-09-24T14:11:46.779Z,99.90
2018-09-24T14:14:20.981Z,99.90
2018-09-24T14:16:55.410Z,99.90
2018-09-24T14:19:29.166Z,99.90
2018-09-24T14:22:02.800Z,99.90
2018-09-24T14:24:36.487Z,99.90
2018-09-24T14:27:10.225Z,99.90
2018-09-24T14:29:44.107Z,99.90
2018-09-24T14:32:17.816Z,99.90
2018-09-24T14:34:51.682Z,99.90
2018-09-24T14:37:25.969Z,99.90
2018-09-24T14:39:59.750Z,99.90
2018-09-24T14:42:33.563Z,99.90
2018-09-24T14:45:07.234Z,99.90
2018-09-24T14:47:40.952Z,99.90
2018-09-24T14:50:14.693Z,99.90
2018-09-24T14:52:48.479Z,99.90
2018-09-24T14:55:22.212Z,99.90
2018-09-24T14:57:56.663Z,99.90
2018-09-24T15:00:30.302Z,99.90
2018-09-24T15:03:04.862Z,99.90
2018-09-24T15:05:39.659Z,99.90
2018-09-24T15:08:13.455Z,99.90
2018-09-24T15:10:47.237Z,99.90
2018-09-24T15:13:21.255Z,99.90
2018-09-24T15:15:54.974Z,99.90
2018-09-24T15:18:28.791Z,99.90
2018-09-24T15:21:02.857Z,99.90
2018-09-24T15:23:36.663Z,99.90
2018-09-24T15:26:10.383Z,99.90
2018-09-24T15:28:44.956Z,99.90
2018-09-24T15:31:18.720Z,99.90
2018-09-24T15:33:52.540Z,99.90
2018-09-24T15:36:26.235Z,99.90
2018-09-24T15:39:00.287Z,99.90
2018-09-24T15:41:34.025Z,99.90
2018-09-24T15:44:07.837Z,99.90
2018-09-24T15:46:41.669Z,99.90
2018-09-24T15:49:15.436Z,99.90
2018-09-24T15:51:49.197Z,99.90
2018-09-24T15:54:22.849Z,99.90
2018-09-24T15:56:56.563Z,99.90
2018-09-24T15:59:30.375Z,99.90
2018-09-24T16:02:04.100Z,99.90
2018-09-24T16:04:38.049Z,99.10
2018-09-24T16:07:11.896Z,99.90
2018-09-24T16:09:45.716Z,97.90
2018-09-24T16:12:19.371Z,98.30
2018-09-24T16:14:53.870Z,98.70
2018-09-24T16:17:27.749Z,98.70
2018-09-24T16:20:01.439Z,99.00
2018-09-24T16:22:35.322Z,98.10
2018-09-24T16:25:09.293Z,98.50
2018-09-24T16:27:43.081Z,98.90
2018-09-24T16:30:17.657Z,99.50
2018-09-24T16:32:51.555Z,99.90
2018-09-24T16:35:25.203Z,99.90
2018-09-24T16:37:58.990Z,99.00
2018-09-24T16:40:33.342Z,98.60
2018-09-24T16:43:07.106Z,99.90
2018-09-24T16:45:40.855Z,99.90
2018-09-24T16:48:14.562Z,99.90
2018-09-24T16:50:49.064Z,99.90
2018-09-24T16:53:22.731Z,99.90
2018-09-24T16:55:57.057Z,99.90
2018-09-24T16:58:31.729Z,99.90
2018-09-24T17:01:05.781Z,99.90
2018-09-24T17:03:39.518Z,99.90
2018-09-24T17:06:13.335Z,99.90
2018-09-24T17:08:47.186Z,99.90
2018-09-24T17:11:21.509Z,99.90
2018-09-24T17:13:55.474Z,99.90
2018-09-24T17:16:29.212Z,99.90
2018-09-24T17:19:03.916Z,99.90
2018-09-24T17:21:37.803Z,99.90
2018-09-24T17:24:11.752Z,99.90
2018-09-24T17:26:45.631Z,99.90
2018-09-24T17:29:19.532Z,99.90
2018-09-24T17:31:54.202Z,99.90
2018-09-24T17:34:27.945Z,99.90
2018-09-24T17:37:01.767Z,99.90
2018-09-24T17:39:35.596Z,99.90
2018-09-24T17:42:09.456Z,99.90
2018-09-24T17:44:44.060Z,99.90
2018-09-24T17:47:17.957Z,99.90
2018-09-24T17:49:51.718Z,99.90
2018-09-24T17:52:25.526Z,99.90
2018-09-24T17:54:59.313Z,99.90
2018-09-24T17:57:33.766Z,99.90
2018-09-24T18:00:08.435Z,99.90
2018-09-24T18:02:42.071Z,99.90
2018-09-24T18:05:15.862Z,99.90
2018-09-24T18:07:49.634Z,99.90
2018-09-24T18:10:23.260Z,99.90
2018-09-24T18:12:58.094Z,99.90
2018-09-24T18:15:31.895Z,99.90
2018-09-24T18:18:06.996Z,99.90
2018-09-24T18:20:40.645Z,99.90
2018-09-24T18:23:14.293Z,99.90
2018-09-24T18:25:48.794Z,99.90
2018-09-24T18:28:22.646Z,99.90
2018-09-24T18:30:57.145Z,99.90
2018-09-24T18:33:31.029Z,99.90
2018-09-24T18:36:04.942Z,99.90
2018-09-24T18:38:40.022Z,99.90
2018-09-24T18:41:14.136Z,99.90
2018-09-24T18:43:48.415Z,99.90
2018-09-24T18:46:22.340Z,99.90
2018-09-24T18:48:56.119Z,99.90
2018-09-24T18:51:30.456Z,99.90
2018-09-24T18:54:05.073Z,99.90
2018-09-24T18:56:38.951Z,99.90
2018-09-24T18:59:12.754Z,99.90
2018-09-24T19:01:46.654Z,99.90
2018-09-24T19:04:20.573Z,99.90
2018-09-24T19:06:54.341Z,99.90
2018-09-24T19:09:28.219Z,99.90
2018-09-24T19:12:01.895Z,99.90
2018-09-24T19:14:35.678Z,99.90
2018-09-24T19:17:09.401Z,99.90
2018-09-24T19:19:43.334Z,99.90
2018-09-24T19:22:17.951Z,99.90
2018-09-24T19:24:51.680Z,99.90
2018-09-24T19:27:25.446Z,99.90
2018-09-24T19:29:59.370Z,99.90
2018-09-24T19:32:33.951Z,99.90
2018-09-24T19:35:07.938Z,99.90
2018-09-24T19:37:41.700Z,99.90
2018-09-24T19:40:16.598Z,99.90
2018-09-24T19:42:50.558Z,99.90
2018-09-24T19:45:26.272Z,99.90
2018-09-24T19:48:00.084Z,99.90
2018-09-24T19:50:34.656Z,99.90
2018-09-24T19:53:08.540Z,99.90
2018-09-24T19:55:42.488Z,99.90
2018-09-24T19:58:16.653Z,99.90
2018-09-24T20:00:50.433Z,99.90
2018-09-24T20:03:24.913Z,99.90
2018-09-24T20:05:58.748Z,99.90
2018-09-24T20:08:33.523Z,99.90
2018-09-24T20:11:07.235Z,99.90
2018-09-24T20:13:41.761Z,99.90
2018-09-24T20:16:16.731Z,99.90
2018-09-24T20:18:50.475Z,99.90
2018-09-24T20:21:24.977Z,99.90
2018-09-24T20:23:58.861Z,99.90
2018-09-24T20:26:32.618Z,99.90
2018-09-24T20:29:06.249Z,99.90
2018-09-24T20:31:40.013Z,99.90
2018-09-24T20:34:14.125Z,99.90
2018-09-24T20:36:48.060Z,99.90
2018-09-24T20:39:22.083Z,99.90
2018-09-24T20:41:56.487Z,99.90
2018-09-24T20:44:30.416Z,99.90
2018-09-24T20:47:04.950Z,99.90
2018-09-24T20:49:39.622Z,99.90
2018-09-24T20:52:13.786Z,99.90
2018-09-24T20:54:47.764Z,99.90
2018-09-24T20:57:21.460Z,99.90
2018-09-24T20:59:55.229Z,99.90
2018-09-24T21:02:28.931Z,99.90
2018-09-24T21:05:03.621Z,99.90
2018-09-24T21:07:38.111Z,99.90
2018-09-24T21:10:12.419Z,99.90
2018-09-24T21:12:46.619Z,99.90
2018-09-24T21:15:21.491Z,99.90
2018-09-24T21:17:55.411Z,99.90
2018-09-24T21:20:29.714Z,99.90
2018-09-24T21:23:04.197Z,99.90
2018-09-24T21:25:38.759Z,99.90
2018-09-24T21:28:12.340Z,99.90
2018-09-24T21:30:46.134Z,99.90
2018-09-24T21:33:19.951Z,99.90
2018-09-24T21:35:53.804Z,99.90
2018-09-24T21:38:27.856Z,99.90
2018-09-24T21:41:01.837Z,99.90
2018-09-24T21:43:36.101Z,99.90
2018-09-24T21:46:10.782Z,99.90
2018-09-24T21:48:44.523Z,99.90
2018-09-24T21:51:18.920Z,99.90
2018-09-24T21:53:52.848Z,99.90
2018-09-24T21:56:26.682Z,99.90
2018-09-24T21:59:01.370Z,99.90
2018-09-24T22:01:35.472Z,99.90
2018-09-24T22:04:09.093Z,99.90
2018-09-24T22:06:42.917Z,99.90
2018-09-24T22:09:16.650Z,99.90
2018-09-24T22:11:50.312Z,99.90
2018-09-24T22:14:24.209Z,99.90
2018-09-24T22:16:58.040Z,99.90
2018-09-24T22:19:31.952Z,99.90
2018-09-24T22:22:05.739Z,99.90
2018-09-24T22:24:39.616Z,99.90
2018-09-24T22:27:13.521Z,99.90
2018-09-24T22:29:47.818Z,99.90
2018-09-24T22:32:22.324Z,99.90
2018-09-24T22:34:56.354Z,99.90
2018-09-24T22:37:30.186Z,99.90
2018-09-24T22:40:03.914Z,99.90
2018-09-24T22:42:38.202Z,99.90
2018-09-24T22:45:11.811Z,99.90
2018-09-24T22:47:46.027Z,99.90
2018-09-24T22:50:19.725Z,99.90
2018-09-24T22:52:54.194Z,99.90
2018-09-24T22:55:28.003Z,99.90
2018-09-24T22:58:02.632Z,99.90
2018-09-24T23:00:36.985Z,99.90
2018-09-24T23:03:10.741Z,99.90
2018-09-24T23:05:45.295Z,99.90
2018-09-24T23:08:18.994Z,99.90
2018-09-24T23:10:52.719Z,99.90
2018-09-24T23:13:26.406Z,99.90
2018-09-24T23:16:00.908Z,99.90
2018-09-24T23:18:34.703Z,99.90
2018-09-24T23:21:08.796Z,99.90
2018-09-24T23:23:42.764Z,99.90
2018-09-24T23:26:16.462Z,99.90
2018-09-24T23:28:50.198Z,99.90
2018-09-24T23:31:23.951Z,99.90
2018-09-24T23:33:57.920Z,99.90
2018-09-24T23:36:32.495Z,99.90
2018-09-24T23:39:06.111Z,99.90
2018-09-24T23:41:39.735Z,99.90
2018-09-24T23:44:13.462Z,99.90
2018-09-24T23:46:47.232Z,99.90
2018-09-24T23:49:21.254Z,99.90
2018-09-24T23:51:54.914Z,99.90
2018-09-24T23:54:29.367Z,99.90
2018-09-24T23:57:03.332Z,99.90
2018-09-24T23:59:37.113Z,99.90
